createdAt,value
2018-12-15T00:07:09.000Z,23.88
2018-12-15T00:17:09.000Z,23.94
2018-12-15T00:27:09.000Z,23.83
2018-12-15T00:37:09.000Z,23.87
2018-12-15T00:47:09.000Z,23.81
2018-12-15T00:57:09.000Z,23.84
2018-12-15T01:07:09.000Z,23.76
2018-12-15T01:17:09.000Z,23.74
2018-12-15T01:27:09.000Z,23.69
2018-12-15T01:37:09.000Z,23.57
2018-12-15T01:47:09.000Z,23.61
2018-12-15T01:57:09.000Z,23.65
2018-12-15T02:07:09.000Z,23.6
2018-12-15T02:17:09.000Z,23.61
2018-12-15T02:27:09.000Z,23.56
2018-12-15T02:37:09.000Z,23.6
2018-12-15T02:47:09.000Z,23.47
2018-12-15T02:57:09.000Z,23.49
2018-12-15T03:07:09.000Z,23.42
2018-12-15T03:17:09.000Z,23.5
2018-12-15T03:27:09.000Z,23.38
2018-12-15T03:37:09.000Z,23.29
2018-12-15T03:47:09.000Z,23.38
2018-12-15T03:57:09.000Z,23.35
2018-12-15T04:07:09.000Z,23.32
2018-12-15T04:17:09.000Z,23.19
2018-12-15T04:27:09.000Z,23.25
2018-12-15T04:37:09.000Z,23.2
2018-12-15T04:47:09.000Z,23.09
2018-12-15T04:57:09.000Z,23.04
2018-12-15T05:07:09.000Z,23.11
2018-12-15T05:17:09.000Z,23.05
2018-12-15T05:27:10.000Z,23.06
2018-12-15T05:37:09.000Z,23.09
2018-12-15T05:47:09.000Z,23.07
2018-12-15T05:57:09.000Z,23.11
2018-12-15T06:07:09.000Z,23.23
2018-12-15T06:17:09.000Z,23.17
2018-12-15T06:27:09.000Z,23.16
2018-12-15T06:37:09.000Z,23.32
2018-12-15T06:47:09.000Z,23.37
2018-12-15T06:57:09.000Z,23.38
2018-12-15T07:07:10.000Z,23.38
2018-12-15T07:17:10.000Z,23.46
2018-12-15T07:27:10.000Z,23.52
2018-12-15T07:37:10.000Z,23.53
2018-12-15T07:47:10.000Z,23.62
2018-12-15T07:57:10.000Z,23.67
2018-12-15T08:07:10.000Z,23.75
2018-12-15T08:17:10.000Z,23.76
2018-12-15T08:27:10.000Z,23.8
2018-12-15T08:37:10.000Z,23.78
2018-12-15T08:47:10.000Z,23.85
2018-12-15T08:57:10.000Z,23.89
2018-12-15T09:07:10.000Z,23.85
2018-12-15T09:17:10.000Z,23.78
2018-12-15T09:27:10.000Z,23.83
2018-12-15T09:37:10.000Z,23.79
2018-12-15T09:47:10.000Z,23.73
2018-12-15T09:57:10.000Z,23.73
2018-12-15T10:07:10.000Z,23.78
2018-12-15T10:17:10.000Z,23.75
2018-12-15T10:27:10.000Z,23.75
2018-12-15T10:37:10.000Z,23.76
2018-12-15T10:47:10.000Z,23.83
2018-12-15T10:57:10.000Z,23.86
2018-12-15T11:07:10.000Z,23.86
2018-12-15T11:17:10.000Z,23.84
2018-12-15T11:27:10.000Z,23.77
2018-12-15T11:37:10.000Z,23.75
2018-12-15T11:47:10.000Z,23.74
2018-12-15T11:57:10.000Z,23.76
2018-12-15T12:07:10.000Z,23.8
2018-12-15T12:17:10.000Z,23.73
2018-12-15T12:27:10.000Z,23.73
2018-12-15T12:37:10.000Z,23.75
2018-12-15T12:47:10.000Z,23.86
2018-12-15T12:57:10.000Z,23.83
2018-12-15T13:07:10.000Z,23.82
2018-12-15T13:17:10.000Z,23.87
2018-12-15T13:27:10.000Z,23.91
2018-12-15T13:37:10.000Z,23.94
2018-12-15T13:47:10.000Z,23.92
2018-12-15T13:57:11.000Z,23.99
2018-12-15T14:07:10.000Z,24
2018-12-15T14:17:11.000Z,24.04
2018-12-15T14:27:10.000Z,24.02
2018-12-15T14:37:10.000Z,24.21
2018-12-15T14:47:10.000Z,24.19
2018-12-15T14:57:10.000Z,24.17
2018-12-15T15:07:10.000Z,24.13
2018-12-15T15:17:11.000Z,24.19
2018-12-15T15:27:11.000Z,24.19
2018-12-15T15:37:11.000Z,24.16
2018-12-15T15:47:11.000Z,24.2
2018-12-15T15:57:11.000Z,24.14
2018-12-15T16:07:11.000Z,24.15
2018-12-15T16:17:11.000Z,24.19
2018-12-15T16:27:11.000Z,24.13
2018-12-15T16:37:11.000Z,24.14
2018-12-15T16:47:11.000Z,24.23
2018-12-15T16:57:11.000Z,24.13
2018-12-15T17:07:11.000Z,24.37
2018-12-15T17:17:11.000Z,24.42
2018-12-15T17:27:15.000Z,24.5
2018-12-15T17:37:14.000Z,24.99
2018-12-15T17:47:11.000Z,24.79
2018-12-15T17:57:11.000Z,24.8
2018-12-15T18:07:11.000Z,24.96
2018-12-15T18:17:12.000Z,24.78
2018-12-15T18:27:11.000Z,25.11
2018-12-15T18:37:11.000Z,25.2
2018-12-15T18:47:11.000Z,25.15
2018-12-15T18:57:11.000Z,24.73
2018-12-15T19:07:11.000Z,24.86
2018-12-15T19:17:11.000Z,24.94
2018-12-15T19:27:13.000Z,24.83
2018-12-15T19:37:11.000Z,25.05
2018-12-15T19:47:11.000Z,25.27
2018-12-15T19:57:11.000Z,25.29
2018-12-15T20:07:11.000Z,25
2018-12-15T20:17:11.000Z,24.81
2018-12-15T20:27:11.000Z,24.82
2018-12-15T20:37:11.000Z,25.08
2018-12-15T20:47:11.000Z,25.06
2018-12-15T20:57:12.000Z,24.76
2018-12-15T21:07:11.000Z,24.94
2018-12-15T21:17:11.000Z,25.34
2018-12-15T21:27:11.000Z,25.12
2018-12-15T21:37:11.000Z,25.27
2018-12-15T21:47:11.000Z,25.42
2018-12-15T21:57:11.000Z,25.52
2018-12-15T22:07:11.000Z,24.98
2018-12-15T22:17:12.000Z,25.1
2018-12-15T22:27:11.000Z,25.3
2018-12-15T22:37:11.000Z,25.32
2018-12-15T22:47:11.000Z,25.28
2018-12-15T22:57:13.000Z,25.2
2018-12-15T23:07:11.000Z,25.13
2018-12-15T23:17:12.000Z,25
2018-12-15T23:27:12.000Z,24.96
2018-12-15T23:47:12.000Z,24.84
2018-12-15T23:57:12.000Z,24.7
